CheckWX is a tool to help pilots better visualize weather data.  It is not intended as a substitute for an official pre-flight weather briefing.

06:36:35 UTC

KGZN METAR
Gregory M Simmons Memorial Airport
Cisco, Texas, USA
Current

37 mins ago

KGZN 220600Z AUTO 17017G23KT 10SM SCT031 SCT039 20/15 A2994 RMK AO2
Observed
Apr-22 @ 06:00 UTC
Wind
  • 170° at 17 KTS
  • Gusting to 23 KTS
Visibility
10 SM
Flight Rules
VFR
Cloud Levels
  • Scattered at 3,100' AGL
  • Scattered at 3,900' AGL
Temperature
20°C / 68°F
Dewpoint
15°C / 59°F
Humidity
73%
Altimeter
29.94" Hg
Pressure
1013.92 hPa
Previous

57 mins ago

KGZN 220540Z AUTO 16016KT 10SM FEW033 FEW041 20/15 A2994 RMK AO2
Observed
Apr-22 @ 05:40 UTC
Wind
  • 160° at 16 KTS
Visibility
10 SM
Flight Rules
VFR
Cloud Levels
  • Few at 3,300' AGL
  • Few at 4,100' AGL
Temperature
20°C / 68°F
Dewpoint
15°C / 59°F
Humidity
73%
Altimeter
29.94" Hg
Pressure
1013.92 hPa
Previous

1 hour ago

KGZN 220520Z AUTO 16015KT 10SM FEW032 FEW041 20/15 A2993 RMK AO2
Observed
Apr-22 @ 05:20 UTC
Wind
  • 160° at 15 KTS
Visibility
10 SM
Flight Rules
VFR
Cloud Levels
  • Few at 3,200' AGL
  • Few at 4,100' AGL
Temperature
20°C / 68°F
Dewpoint
15°C / 59°F
Humidity
73%
Altimeter
29.93" Hg
Pressure
1013.52 hPa